Thursday, September 20, 2018, 8:38 AM EDT
Back to Local

KBED, Bedford Hanscom Field

Location: Concord, MA, United States Lat: 42.467
Local Time: 8:38 AM EDT (12:38 GMT) Lon: -71.3
Time Zone: US/Eastern Elev: 134 ft

Show me the last for .
Show Decoded

2018-09-20 07:56 METAR KBED 201156Z 01005KT 10SM BKN010 16/13 A3021 RMK AO2 SLP241 T01560128
                 10156 20139 53022 =
2018-09-20 07:17 METAR KBED 201117Z 33004KT 10SM BKN012 14/13 A3019 RMK AO2 T01440128 =
2018-09-20 06:56 METAR KBED 201056Z 35003KT 10SM FEW010 14/12 A3018 RMK AO2 SLP231 T01390122 =
2018-09-20 06:13 METAR KBED 201013Z AUTO 04007KT 10SM SCT011 14/12 A3015 RMK AO2 T01390122 =
2018-09-20 05:56 METAR KBED 200956Z AUTO VRB06KT 10SM BKN011 14/13 A3014 RMK AO2 SLP219 T01440128
                 =
2018-09-20 04:56 METAR KBED 200856Z AUTO 02005KT 10SM OVC011 14/13 A3014 RMK AO2 SLP219 T01440128
                 53005 =
2018-09-20 04:41 METAR KBED 200841Z AUTO 02003KT 10SM BKN010 BKN055 14/13 A3014 RMK AO2 T01440128
                 =
2018-09-20 03:56 METAR KBED 200756Z AUTO 03005KT 10SM OVC055 14/13 A3013 RMK AO2 SLP216 T01440128
                 =
2018-09-20 03:41 METAR KBED 200741Z AUTO 04006KT 10SM FEW012 FEW025 OVC055 14/13 A3013 RMK AO2
                 T01440128 =
2018-09-20 03:08 METAR KBED 200708Z AUTO 01005KT 10SM SCT014 BKN027 OVC050 15/13 A3013 RMK AO2
                 T01500128 =
2018-09-20 02:56 METAR KBED 200656Z AUTO 01005KT 10SM BKN014 BKN020 OVC050 15/13 A3013 RMK AO2
                 SLP214 T01500128 =
2018-09-20 02:54 METAR KBED 200654Z AUTO 01004KT 10SM SCT014 BKN022 OVC050 15/13 A3013 RMK AO2 =
2018-09-20 01:56 METAR KBED 200556Z AUTO 02005KT 10SM OVC050 15/13 A3012 RMK AO2 SLP212 T01500128
                 10156 20150 50010 =
2018-09-20 01:33 METAR KBED 200533Z AUTO 03005KT 10SM FEW026 OVC050 15/13 A3011 RMK AO2 T01500128
                 =
2018-09-20 00:56 METAR KBED 200456Z AUTO 35005KT 10SM BKN027 OVC050 15/13 A3012 RMK AO2 SLP214
                 T01500128 402000150 =
2018-09-19 23:56 METAR KBED 200356Z AUTO 34005KT 10SM FEW023 OVC028 16/13 A3010 RMK AO2 SLP206
                 T01560128 =
2018-09-19 22:56 METAR KBED 200256Z AUTO 03005KT 10SM OVC023 16/13 A3009 RMK AO2 SLP202 T01560128
                 51010 =
2018-09-19 22:36 METAR KBED 200236Z 01004KT 10SM SCT023 BKN027 OVC050 16/13 A3009 RMK AO2
                 T01560128 =
2018-09-19 22:23 METAR KBED 200223Z 35005KT 10SM SCT029 OVC050 16/13 A3009 RMK AO2 T01560128 =
2018-09-19 22:12 METAR KBED 200212Z 00000KT 10SM FEW021 BKN029 OVC050 16/13 A3009 RMK AO2
                 T01560128 =
2018-09-19 21:56 METAR KBED 200156Z 04004KT 10SM SCT029 OVC050 16/13 A3008 RMK AO2 SLP200
                 T01560128 =
2018-09-19 21:13 METAR KBED 200113Z 02005KT 10SM OVC030 16/13 A3009 RMK AO2 T01560128 =
2018-09-19 20:56 METAR KBED 200056Z 04006KT 10SM BKN028 OVC034 16/13 A3008 RMK AO2 SLP198
                 T01560128 =
2018-09-19 19:56 METAR KBED 192356Z 04006KT 10SM FEW015 BKN026 16/12 A3006 RMK AO2 SLP191
                 T01560122 10183 20156 51026 =
2018-09-19 19:25 METAR KBED 192325Z 06004KT 10SM BKN026 OVC050 16/12 A3005 RMK AO2 T01610122 =
2018-09-19 19:03 METAR KBED 192303Z 05006KT 10SM OVC050 16/12 A3004 RMK AO2 T01610122 =
2018-09-19 18:56 METAR KBED 192256Z 06008KT 10SM BKN025 BKN030 OVC050 16/12 A3003 RMK AO2 SLP183
                 T01610122 =
2018-09-19 17:56 METAR KBED 192156Z 06007KT 10SM BKN018 BKN030 OVC048 17/13 A3002 RMK AO2 SLP177
                 T01720128 =
2018-09-19 16:56 METAR KBED 192056Z 08006KT 10SM BKN022 OVC048 18/13 A2998 RMK AO2 SLP164
                 T01830133 53004 =
2018-09-19 15:56 METAR KBED 191956Z 06006KT 10SM OVC015 18/13 A2997 RMK AO2 SLP161 T01830133 =
2018-09-19 14:56 METAR KBED 191856Z 04005KT 10SM BKN015 OVC021 18/13 A2997 RMK AO2 SLP160
                 T01780133 =
2018-09-19 14:46 METAR KBED 191846Z 04005KT 10SM BKN015 OVC021 18/14 A2997 RMK AO2 T01780139 =
2018-09-19 13:56 METAR KBED 191756Z 03005KT 10SM OVC011 17/14 A2997 RMK AO2 SLP159 T01720139
                 10178 20156 50001 =
2018-09-19 13:22 METAR KBED 191722Z 06009KT 10SM BR OVC011 17/14 A2997 RMK AO2 CIG 008V014
                 T01720144 =
2018-09-19 12:56 METAR KBED 191656Z 03007KT 5SM BR OVC008 17/14 A2997 RMK AO2 SLP160 T01720144 =
2018-09-19 12:52 METAR KBED 191652Z 05008KT 5SM BR OVC008 17/14 A2997 RMK AO2 =
2018-09-19 12:05 METAR KBED 191605Z 06007KT 5SM BR BKN010 OVC015 17/14 A2997 RMK AO2 CIG 008V012
                 T01720144 =
2018-09-19 11:56 METAR KBED 191556Z 05007KT 5SM BR OVC008 17/14 A2996 RMK AO2 SLP158 T01670144 =
2018-09-19 11:13 METAR KBED 191513Z 06007KT 9SM BR BKN006 OVC015 17/14 A2996 RMK AO2 T01670144 =
2018-09-19 11:03 METAR KBED 191503Z 04007KT 10SM BR BKN010 OVC017 17/14 A2996 RMK AO2 CIG 008V012
                 T01720144 =
2018-09-19 10:56 METAR KBED 191456Z 05008KT 5SM BR BKN006 OVC015 17/14 A2996 RMK AO2 SLP157
                 T01670144 53014 =
2018-09-19 09:56 METAR KBED 191356Z 04009KT 5SM BR BKN007 OVC015 17/14 A2994 RMK AO2 SLP150
                 T01670144 =
2018-09-19 09:03 METAR KBED 191303Z 04010KT 4SM BR OVC008 16/14 A2992 RMK AO2 T01610144 =
2018-09-19 08:56 METAR KBED 191256Z 04010KT 2SM BR OVC006 16/15 A2992 RMK AO2 SLP143 T01610150 =
2018-09-19 08:52 METAR KBED 191252Z 03008KT 2SM BR OVC006 16/15 A2992 RMK AO2 =

Support USWX by starting your Amazon purchase here.